createdAt,value
2019-01-16T00:00:53.708Z,5.10
2019-01-16T00:03:37.348Z,5.10
2019-01-16T00:06:37.758Z,5.10
2019-01-16T00:09:26.278Z,5.10
2019-01-16T00:12:06.564Z,5.00
2019-01-16T00:15:07.036Z,5.10
2019-01-16T00:18:07.009Z,5.10
2019-01-16T00:20:54.323Z,5.10
2019-01-16T00:23:41.010Z,5.10
2019-01-16T00:26:30.959Z,5.20
2019-01-16T00:29:12.074Z,5.20
2019-01-16T00:31:58.910Z,5.10
2019-01-16T00:34:56.125Z,5.10
2019-01-16T00:37:53.347Z,5.10
2019-01-16T00:40:40.192Z,5.10
2019-01-16T00:43:27.272Z,5.10
2019-01-16T00:46:27.666Z,5.10
2019-01-16T00:49:27.865Z,5.10
2019-01-16T00:52:16.004Z,5.10
2019-01-16T00:54:59.362Z,5.10
2019-01-16T00:57:53.326Z,5.00
2019-01-16T01:00:40.130Z,5.00
2019-01-16T01:03:35.727Z,5.00
2019-01-16T01:06:22.717Z,5.00
2019-01-16T01:09:10.035Z,5.10
2019-01-16T01:11:58.187Z,5.10
2019-01-16T01:14:37.525Z,5.10
2019-01-16T01:17:13.779Z,5.00
2019-01-16T01:20:02.055Z,5.00
2019-01-16T01:22:53.222Z,5.00
2019-01-16T01:25:44.108Z,5.00
2019-01-16T01:28:23.955Z,5.00
2019-01-16T01:31:11.159Z,5.00
2019-01-16T01:34:08.630Z,5.00
2019-01-16T01:37:04.039Z,4.90
2019-01-16T01:39:55.144Z,4.90
2019-01-16T01:42:46.091Z,4.90
2019-01-16T01:45:33.029Z,4.90
2019-01-16T01:48:20.045Z,4.90
2019-01-16T01:51:08.177Z,4.80
2019-01-16T01:53:56.299Z,4.80
2019-01-16T01:56:48.063Z,4.90
2019-01-16T01:59:39.211Z,4.80
2019-01-16T02:02:45.683Z,4.80
2019-01-16T02:05:31.271Z,4.80
2019-01-16T02:08:22.784Z,4.80
2019-01-16T02:11:03.457Z,4.80
2019-01-16T02:13:43.291Z,4.80
2019-01-16T02:16:33.475Z,4.80
2019-01-16T02:19:27.957Z,4.80
2019-01-16T02:22:15.019Z,4.80
2019-01-16T02:25:12.411Z,4.80
2019-01-16T02:28:06.427Z,4.80
2019-01-16T02:30:53.147Z,4.80
2019-01-16T02:33:50.647Z,4.80
2019-01-16T02:36:37.541Z,4.80
2019-01-16T02:39:12.073Z,4.80
2019-01-16T02:41:59.059Z,4.80
2019-01-16T02:44:46.085Z,4.70
2019-01-16T02:47:40.371Z,4.70
2019-01-16T02:50:43.863Z,4.70
2019-01-16T02:53:30.666Z,4.70
2019-01-16T02:56:34.227Z,4.70
2019-01-16T02:59:21.897Z,4.70
2019-01-16T03:02:07.352Z,4.70
2019-01-16T03:04:58.268Z,4.70
2019-01-16T03:07:42.813Z,4.70
2019-01-16T03:10:22.225Z,4.60
2019-01-16T03:12:59.501Z,4.60
2019-01-16T03:16:05.981Z,4.60
2019-01-16T03:18:52.736Z,4.60
2019-01-16T03:21:46.779Z,4.70
2019-01-16T03:24:43.729Z,4.70
2019-01-16T03:27:21.827Z,4.70
2019-01-16T03:30:13.000Z,4.70
2019-01-16T03:33:10.486Z,4.70
2019-01-16T03:36:10.809Z,4.60
2019-01-16T03:39:17.059Z,4.60
2019-01-16T03:42:17.267Z,4.60
2019-01-16T03:44:55.625Z,4.60
2019-01-16T03:47:42.417Z,4.60
2019-01-16T03:50:30.783Z,4.60
2019-01-16T03:53:17.791Z,4.60
2019-01-16T03:56:04.840Z,4.60
2019-01-16T03:58:52.062Z,4.50
2019-01-16T04:01:43.283Z,4.60
2019-01-16T04:04:28.072Z,4.50
2019-01-16T04:07:10.605Z,4.50
2019-01-16T04:10:14.115Z,4.60
2019-01-16T04:13:05.308Z,4.50
2019-01-16T04:15:50.644Z,4.50
2019-01-16T04:18:53.919Z,4.50
2019-01-16T04:21:33.035Z,4.50
2019-01-16T04:24:20.151Z,4.40
2019-01-16T04:27:14.344Z,4.50
2019-01-16T04:30:09.852Z,4.40
2019-01-16T04:32:56.766Z,4.40
2019-01-16T04:35:43.805Z,4.50
2019-01-16T04:38:35.979Z,4.40
2019-01-16T04:41:13.088Z,4.40
2019-01-16T04:44:06.830Z,4.40
2019-01-16T04:46:51.533Z,4.40
2019-01-16T04:49:38.744Z,4.40
2019-01-16T04:52:23.604Z,4.40
2019-01-16T04:55:23.981Z,4.40
2019-01-16T04:58:12.129Z,4.40
2019-01-16T05:00:50.913Z,4.40
2019-01-16T05:03:51.429Z,4.40
2019-01-16T05:06:39.913Z,4.40
2019-01-16T05:09:28.056Z,4.40
2019-01-16T05:12:25.124Z,4.40
2019-01-16T05:15:16.295Z,4.40
2019-01-16T05:18:02.302Z,4.40
2019-01-16T05:20:49.018Z,4.40
2019-01-16T05:23:37.171Z,4.40
2019-01-16T05:26:17.622Z,4.40
2019-01-16T05:29:04.552Z,4.40
2019-01-16T05:31:51.764Z,4.40
2019-01-16T05:34:34.149Z,4.40
2019-01-16T05:37:28.971Z,4.40
2019-01-16T05:40:15.887Z,4.40
2019-01-16T05:43:02.825Z,4.40
2019-01-16T05:46:06.433Z,4.40
2019-01-16T05:49:06.636Z,4.40
2019-01-16T05:51:54.808Z,4.40
2019-01-16T05:54:40.501Z,4.40
2019-01-16T05:57:28.634Z,4.30
2019-01-16T06:00:22.606Z,4.30
2019-01-16T06:03:29.769Z,4.30
2019-01-16T06:06:16.990Z,4.30
2019-01-16T06:08:56.120Z,4.30
2019-01-16T06:11:42.936Z,4.30
2019-01-16T06:14:29.689Z,4.40
2019-01-16T06:17:20.647Z,4.40
2019-01-16T06:20:11.591Z,4.40
2019-01-16T06:22:53.932Z,4.30
2019-01-16T06:25:40.745Z,4.30
2019-01-16T06:28:23.063Z,4.40
2019-01-16T06:31:01.442Z,4.30
2019-01-16T06:33:50.322Z,4.40
2019-01-16T06:36:37.154Z,4.40
2019-01-16T06:39:19.956Z,4.40
2019-01-16T06:42:02.450Z,4.40
2019-01-16T06:44:53.682Z,4.40
2019-01-16T06:47:50.929Z,4.30
2019-01-16T06:50:39.103Z,4.40
2019-01-16T06:53:30.026Z,4.40
2019-01-16T06:56:18.202Z,4.30
2019-01-16T06:58:59.126Z,4.30
2019-01-16T07:01:49.002Z,4.20
2019-01-16T07:04:37.626Z,4.20
2019-01-16T07:07:24.548Z,4.20
2019-01-16T07:10:22.076Z,4.20
2019-01-16T07:13:03.889Z,4.20
2019-01-16T07:15:47.532Z,4.20
2019-01-16T07:18:34.786Z,4.20
2019-01-16T07:21:21.749Z,4.10
2019-01-16T07:24:01.350Z,4.20
2019-01-16T07:26:58.524Z,4.20
2019-01-16T07:29:38.375Z,4.20
2019-01-16T07:32:32.585Z,4.20
2019-01-16T07:35:32.927Z,4.10
2019-01-16T07:38:19.743Z,4.20
2019-01-16T07:41:03.798Z,4.10
2019-01-16T07:44:04.238Z,4.10
2019-01-16T07:46:58.427Z,4.10
2019-01-16T07:49:59.626Z,4.10
2019-01-16T07:52:47.770Z,4.20
2019-01-16T07:55:34.868Z,4.20
2019-01-16T07:58:14.736Z,4.20
2019-01-16T08:01:01.743Z,4.20
2019-01-16T08:03:46.428Z,4.20
2019-01-16T08:06:42.138Z,4.30
2019-01-16T08:09:26.648Z,4.30
2019-01-16T08:12:14.092Z,4.30
2019-01-16T08:15:08.496Z,4.30
2019-01-16T08:17:56.682Z,4.30
2019-01-16T08:20:43.706Z,4.40
2019-01-16T08:23:30.799Z,4.40
2019-01-16T08:26:17.939Z,4.40
2019-01-16T08:29:04.933Z,4.50
2019-01-16T08:31:52.050Z,4.50
2019-01-16T08:34:39.161Z,4.50
2019-01-16T08:37:30.365Z,4.50
2019-01-16T08:40:11.857Z,4.50
2019-01-16T08:42:58.682Z,4.50
2019-01-16T08:45:47.680Z,4.50
2019-01-16T08:48:34.422Z,4.60
2019-01-16T08:51:21.461Z,4.60
2019-01-16T08:54:22.051Z,4.60
2019-01-16T08:57:29.313Z,4.70
2019-01-16T09:00:16.421Z,4.70
2019-01-16T09:03:07.365Z,4.70
2019-01-16T09:05:51.758Z,4.80
2019-01-16T09:08:33.376Z,4.90
2019-01-16T09:11:30.880Z,4.90
2019-01-16T09:14:19.036Z,5.00
2019-01-16T09:17:10.070Z,5.00
2019-01-16T09:19:55.515Z,4.90
2019-01-16T09:22:55.711Z,4.80
2019-01-16T09:25:49.708Z,4.80
2019-01-16T09:28:40.643Z,4.70
2019-01-16T09:31:35.069Z,4.70
2019-01-16T09:34:21.779Z,4.70
2019-01-16T09:37:05.507Z,4.70
2019-01-16T09:39:56.472Z,4.80
2019-01-16T09:42:43.239Z,4.90
2019-01-16T09:45:37.229Z,5.00
2019-01-16T09:48:28.529Z,5.10
2019-01-16T09:51:19.735Z,5.10
2019-01-16T09:54:13.955Z,5.10
2019-01-16T09:57:08.161Z,5.10
2019-01-16T10:00:11.471Z,5.10
2019-01-16T10:03:01.647Z,5.20
2019-01-16T10:05:52.807Z,5.20
2019-01-16T10:08:41.045Z,5.30
2019-01-16T10:11:21.809Z,5.30
2019-01-16T10:14:13.101Z,5.30
2019-01-16T10:17:02.610Z,5.30
2019-01-16T10:19:49.581Z,5.30
2019-01-16T10:22:36.314Z,5.30
2019-01-16T10:25:28.497Z,5.30
2019-01-16T10:28:27.533Z,5.30
2019-01-16T10:31:19.013Z,5.40
2019-01-16T10:34:06.025Z,5.50
2019-01-16T10:36:45.384Z,5.60
2019-01-16T10:39:33.515Z,5.70
2019-01-16T10:42:11.505Z,5.80
2019-01-16T10:45:08.719Z,5.90
2019-01-16T10:47:46.879Z,5.90
2019-01-16T10:50:44.107Z,6.00
2019-01-16T10:53:41.085Z,6.10
2019-01-16T10:56:32.362Z,6.20
2019-01-16T10:59:19.080Z,6.30
2019-01-16T11:01:55.111Z,6.40
2019-01-16T11:04:42.111Z,6.50
2019-01-16T11:07:21.743Z,6.50
2019-01-16T11:10:00.979Z,6.60
2019-01-16T11:12:40.833Z,6.60
2019-01-16T11:15:35.002Z,6.60
2019-01-16T11:18:22.823Z,6.60
2019-01-16T11:21:11.085Z,6.50
2019-01-16T11:24:01.279Z,6.60
2019-01-16T11:26:52.449Z,6.70
2019-01-16T11:29:42.145Z,6.70
2019-01-16T11:32:29.165Z,6.70
2019-01-16T11:35:21.498Z,6.70
2019-01-16T11:38:08.449Z,6.70
2019-01-16T11:40:56.629Z,6.70
2019-01-16T11:43:44.146Z,6.70
2019-01-16T11:46:31.071Z,6.70
2019-01-16T11:49:28.500Z,6.70
2019-01-16T11:52:19.937Z,6.70
2019-01-16T11:55:20.155Z,6.70
2019-01-16T11:58:08.275Z,6.70
2019-01-16T12:01:05.251Z,6.80
2019-01-16T12:03:58.658Z,6.70
2019-01-16T12:06:54.789Z,6.70
2019-01-16T12:09:43.929Z,6.70
2019-01-16T12:12:30.912Z,6.70
2019-01-16T12:15:25.156Z,6.70
2019-01-16T12:18:22.327Z,6.60
2019-01-16T12:21:09.295Z,6.50
2019-01-16T12:23:56.211Z,6.50
2019-01-16T12:26:44.361Z,6.40
2019-01-16T12:29:31.547Z,6.40
2019-01-16T12:32:25.947Z,6.40
2019-01-16T12:35:17.899Z,6.40
2019-01-16T12:38:05.094Z,6.40
2019-01-16T12:41:08.621Z,6.30
2019-01-16T12:43:56.739Z,6.20
2019-01-16T12:46:42.931Z,6.10
2019-01-16T12:49:33.843Z,6.10
2019-01-16T12:52:28.224Z,6.10
2019-01-16T12:55:31.680Z,6.10
2019-01-16T12:58:18.487Z,6.10
2019-01-16T13:01:15.748Z,6.10
2019-01-16T13:03:52.662Z,6.20
2019-01-16T13:06:39.593Z,6.20
2019-01-16T13:09:27.599Z,6.20
2019-01-16T13:12:29.469Z,6.20
2019-01-16T13:15:13.041Z,6.20
2019-01-16T13:17:59.851Z,6.10
2019-01-16T13:20:47.173Z,6.10
2019-01-16T13:23:25.910Z,6.10
2019-01-16T13:26:09.616Z,6.10
2019-01-16T13:28:57.811Z,6.20
2019-01-16T13:31:37.406Z,6.20
2019-01-16T13:34:34.490Z,6.10
2019-01-16T13:37:34.875Z,6.10
2019-01-16T13:40:35.578Z,6.10
2019-01-16T13:43:31.682Z,6.20
2019-01-16T13:46:24.558Z,6.10
2019-01-16T13:49:11.544Z,6.10
2019-01-16T13:51:53.158Z,6.00
2019-01-16T13:54:39.818Z,6.00
2019-01-16T13:57:31.018Z,5.90
2019-01-16T14:00:19.168Z,5.90
2019-01-16T14:03:06.230Z,5.80
2019-01-16T14:06:03.546Z,5.80
2019-01-16T14:08:50.360Z,5.80
2019-01-16T14:11:38.256Z,5.70
2019-01-16T14:14:32.468Z,5.70
2019-01-16T14:17:23.484Z,5.70
2019-01-16T14:20:09.736Z,5.70
2019-01-16T14:23:00.690Z,5.60
2019-01-16T14:25:47.526Z,5.60
2019-01-16T14:28:34.641Z,5.60
2019-01-16T14:31:21.656Z,5.60
2019-01-16T14:34:08.693Z,5.60
2019-01-16T14:37:00.121Z,5.60
2019-01-16T14:39:47.158Z,5.50
2019-01-16T14:42:34.414Z,5.50
2019-01-16T14:45:19.980Z,5.40
2019-01-16T14:48:06.748Z,5.40
2019-01-16T14:51:01.206Z,5.40
2019-01-16T14:53:48.326Z,5.30
2019-01-16T14:56:39.605Z,5.30
2019-01-16T14:59:28.838Z,5.20
2019-01-16T15:02:29.388Z,5.20
2019-01-16T15:05:16.166Z,5.10
2019-01-16T15:08:04.324Z,5.10
2019-01-16T15:11:01.559Z,5.00
2019-01-16T15:13:49.737Z,5.00
2019-01-16T15:16:36.635Z,4.90
2019-01-16T15:19:23.552Z,4.80
2019-01-16T15:22:20.835Z,4.80
2019-01-16T15:25:07.652Z,4.80
2019-01-16T15:27:54.702Z,4.70
2019-01-16T15:30:37.420Z,4.60
2019-01-16T15:33:31.414Z,4.60
2019-01-16T15:36:25.372Z,4.50
2019-01-16T15:39:19.342Z,4.50
2019-01-16T15:42:13.608Z,4.40
2019-01-16T15:45:00.699Z,4.30
2019-01-16T15:47:48.838Z,4.20
2019-01-16T15:50:44.187Z,4.10
2019-01-16T15:53:32.308Z,4.00
2019-01-16T15:56:28.134Z,4.00
2019-01-16T15:59:19.468Z,4.00
2019-01-16T16:01:59.267Z,3.90
2019-01-16T16:04:47.434Z,3.90
2019-01-16T16:07:41.410Z,3.90
2019-01-16T16:10:28.943Z,3.90
2019-01-16T16:13:20.172Z,3.80
2019-01-16T16:16:07.942Z,3.80
2019-01-16T16:19:11.478Z,3.80
2019-01-16T16:22:08.842Z,3.70
2019-01-16T16:24:50.256Z,3.70
2019-01-16T16:27:47.519Z,3.70
2019-01-16T16:30:39.828Z,3.60
2019-01-16T16:33:27.992Z,3.60
2019-01-16T16:36:18.908Z,3.60
2019-01-16T16:39:05.734Z,3.60
2019-01-16T16:41:47.970Z,3.70
2019-01-16T16:44:48.484Z,3.70
2019-01-16T16:47:29.157Z,3.60
2019-01-16T16:50:32.667Z,3.60
2019-01-16T16:53:21.229Z,3.70
2019-01-16T16:56:17.188Z,3.70
2019-01-16T16:59:05.251Z,3.70
2019-01-16T17:01:50.214Z,3.60
2019-01-16T17:04:41.220Z,3.60
2019-01-16T17:07:35.563Z,3.60
2019-01-16T17:10:30.851Z,3.60
2019-01-16T17:13:22.306Z,3.60
2019-01-16T17:16:10.831Z,3.60
2019-01-16T17:18:59.020Z,3.60
2019-01-16T17:21:46.377Z,3.60
2019-01-16T17:24:28.196Z,3.60
2019-01-16T17:27:15.271Z,3.60
2019-01-16T17:30:03.466Z,3.60
2019-01-16T17:33:00.720Z,3.60
2019-01-16T17:35:48.914Z,3.60
2019-01-16T17:38:52.497Z,3.60
2019-01-16T17:41:29.660Z,3.60
2019-01-16T17:44:16.477Z,3.60
2019-01-16T17:47:07.465Z,3.60
2019-01-16T17:49:55.742Z,3.50
2019-01-16T17:52:55.797Z,3.60
2019-01-16T17:55:44.045Z,3.60
2019-01-16T17:58:41.275Z,3.60
2019-01-16T18:01:29.510Z,3.70
2019-01-16T18:04:23.532Z,3.60
2019-01-16T18:07:14.649Z,3.60
2019-01-16T18:10:12.120Z,3.60
2019-01-16T18:12:59.011Z,3.60
2019-01-16T18:15:46.088Z,3.60
2019-01-16T18:18:46.810Z,3.50
2019-01-16T18:21:35.066Z,3.50
2019-01-16T18:24:23.942Z,3.60
2019-01-16T18:27:17.022Z,3.60
2019-01-16T18:30:11.163Z,3.60
2019-01-16T18:33:14.698Z,3.60
2019-01-16T18:36:02.423Z,3.50
2019-01-16T18:38:45.011Z,3.50
2019-01-16T18:41:38.073Z,3.40
2019-01-16T18:44:17.885Z,3.50
2019-01-16T18:46:59.221Z,3.50
2019-01-16T18:49:39.003Z,3.50
2019-01-16T18:52:51.612Z,3.50
2019-01-16T18:55:39.510Z,3.50
2019-01-16T18:58:26.561Z,3.50
2019-01-16T19:01:17.600Z,3.50
2019-01-16T19:04:12.037Z,3.50
2019-01-16T19:06:59.159Z,3.50
2019-01-16T19:09:47.839Z,3.40
2019-01-16T19:12:36.086Z,3.40
2019-01-16T19:15:26.699Z,3.40
2019-01-16T19:18:14.981Z,3.40
2019-01-16T19:21:15.409Z,3.40
2019-01-16T19:24:02.160Z,3.40
2019-01-16T19:26:48.664Z,3.50
2019-01-16T19:29:37.499Z,3.40
2019-01-16T19:32:39.163Z,3.40
2019-01-16T19:35:29.099Z,3.40
2019-01-16T19:38:12.645Z,3.40
2019-01-16T19:41:01.790Z,3.40
2019-01-16T19:43:49.235Z,3.40
2019-01-16T19:46:36.561Z,3.50
2019-01-16T19:49:24.857Z,3.50
2019-01-16T19:52:26.330Z,3.60
2019-01-16T19:55:23.969Z,3.70
2019-01-16T19:58:14.970Z,3.80
2019-01-16T20:01:08.352Z,3.80
2019-01-16T20:03:56.936Z,3.90
2019-01-16T20:06:45.494Z,3.90
2019-01-16T20:09:35.855Z,4.10
2019-01-16T20:12:27.389Z,4.20
2019-01-16T20:15:19.482Z,4.30
2019-01-16T20:18:06.621Z,4.40
2019-01-16T20:20:55.579Z,4.60
2019-01-16T20:23:49.152Z,4.60
2019-01-16T20:26:41.000Z,4.70
2019-01-16T20:29:48.643Z,4.70
2019-01-16T20:32:30.484Z,4.80
2019-01-16T20:35:30.844Z,4.90
2019-01-16T20:38:23.248Z,4.90
2019-01-16T20:41:11.425Z,4.90
2019-01-16T20:43:58.461Z,5.00
2019-01-16T20:47:06.185Z,5.00
2019-01-16T20:50:09.571Z,5.00
2019-01-16T20:53:06.690Z,5.00
2019-01-16T20:56:08.163Z,5.10
2019-01-16T20:58:56.770Z,5.10
2019-01-16T21:01:51.269Z,5.10
2019-01-16T21:04:51.497Z,5.10
2019-01-16T21:07:43.114Z,5.10
2019-01-16T21:10:38.649Z,5.00
2019-01-16T21:13:30.145Z,5.00
2019-01-16T21:16:22.631Z,5.00
2019-01-16T21:19:13.844Z,5.00
2019-01-16T21:22:08.078Z,5.00
2019-01-16T21:25:05.156Z,5.10
2019-01-16T21:27:52.204Z,5.10
2019-01-16T21:30:41.387Z,5.00
2019-01-16T21:33:29.007Z,5.00
2019-01-16T21:36:22.323Z,5.00
2019-01-16T21:39:19.720Z,4.90
2019-01-16T21:41:57.627Z,5.00
2019-01-16T21:45:04.385Z,5.00
2019-01-16T21:47:58.439Z,5.00
2019-01-16T21:50:49.456Z,5.00
2019-01-16T21:53:36.199Z,5.00
2019-01-16T21:56:15.419Z,5.00
2019-01-16T21:59:03.632Z,5.00
2019-01-16T22:01:50.881Z,4.90
2019-01-16T22:04:37.836Z,4.90
2019-01-16T22:07:28.809Z,4.90
2019-01-16T22:10:24.632Z,4.90
2019-01-16T22:13:12.813Z,4.90
2019-01-16T22:16:16.095Z,4.90
2019-01-16T22:19:00.078Z,4.80
2019-01-16T22:21:57.210Z,4.80
2019-01-16T22:24:39.634Z,4.80
2019-01-16T22:27:19.180Z,4.80
2019-01-16T22:30:10.341Z,4.80
2019-01-16T22:32:50.924Z,4.80
2019-01-16T22:35:39.093Z,4.80
2019-01-16T22:38:26.176Z,4.80
2019-01-16T22:41:14.383Z,4.80
2019-01-16T22:43:52.722Z,4.80
2019-01-16T22:46:43.752Z,4.90
2019-01-16T22:49:34.886Z,4.90
2019-01-16T22:52:29.311Z,4.90
2019-01-16T22:55:22.370Z,5.00
2019-01-16T22:57:58.876Z,5.00
2019-01-16T23:00:50.686Z,5.00
2019-01-16T23:03:41.846Z,5.00
2019-01-16T23:06:32.765Z,4.90
2019-01-16T23:09:36.255Z,4.90
2019-01-16T23:12:39.401Z,4.80
2019-01-16T23:15:30.944Z,4.80
2019-01-16T23:18:17.952Z,4.80
2019-01-16T23:21:09.160Z,4.80
2019-01-16T23:23:53.460Z,4.80
2019-01-16T23:26:34.542Z,4.80
2019-01-16T23:29:15.326Z,4.80
2019-01-16T23:32:03.462Z,4.80
2019-01-16T23:34:50.348Z,4.80
2019-01-16T23:37:41.486Z,4.90
2019-01-16T23:40:28.716Z,4.90
2019-01-16T23:43:15.896Z,4.90
2019-01-16T23:46:02.956Z,4.90
2019-01-16T23:49:03.547Z,4.90
2019-01-16T23:51:43.688Z,4.90
2019-01-16T23:54:30.676Z,4.90
2019-01-16T23:57:37.298Z,4.90
